Time;durP1;ratioP1;P1;durP2;ratioP2;P2;SDS_P1;SDS_P2;PMS_P1;PMS_P2;Temp;Humidity;BMP_temperature;BMP_pressure;BME280_temperature;BME280_humidity;BME280_pressure;Samples;Min_cycle;Max_cycle;Signal;HPM_P1;HPM_P2
2022/06/08 00:01:20;;;;;;;;;;;21.40;87.30;;;;;;5071711;28;20003;-71
2022/06/08 00:03:49;;;;;;;;;;;21.40;87.30;;;;;;5071238;28;20012;-72
2022/06/08 00:06:16;;;;;;;;;;;21.30;87.50;;;;;;5070220;28;19917;-71
2022/06/08 00:08:41;;;;;;;;;;;21.30;87.70;;;;;;5071223;28;19920;-72
2022/06/08 00:11:07;;;;;;;;;;;21.30;87.90;;;;;;5069925;28;19916;-72
2022/06/08 00:13:32;;;;;;;;;;;21.20;87.90;;;;;;5071818;28;20399;-72
2022/06/08 00:15:58;;;;;;;;;;;21.30;87.60;;;;;;5071667;28;19912;-72
2022/06/08 00:18:23;;;;;;;;;;;21.20;87.90;;;;;;5071263;28;19959;-72
2022/06/08 00:20:49;;;;;;;;;;;21.20;87.80;;;;;;5071500;28;19958;-72
2022/06/08 00:23:15;;;;;;;;;;;21.20;88.70;;;;;;5071560;28;19916;-72
2022/06/08 00:25:40;;;;;;;;;;;21.20;88.10;;;;;;5071122;28;19921;-72
2022/06/08 00:28:06;;;;;;;;;;;21.10;88.60;;;;;;5072768;28;19924;-72
2022/06/08 00:30:32;;;;;;;;;;;21.20;88.00;;;;;;5075556;28;20049;-72
2022/06/08 00:32:57;;;;;;;;;;;21.10;87.90;;;;;;5075376;28;20375;-72
2022/06/08 00:35:23;;;;;;;;;;;21.20;88.10;;;;;;5075403;28;19913;-71
2022/06/08 00:37:48;;;;;;;;;;;21.10;88.10;;;;;;5075267;28;19917;-72
2022/06/08 00:40:15;;;;;;;;;;;21.10;88.30;;;;;;5075134;28;19919;-71
2022/06/08 00:42:41;;;;;;;;;;;21.00;88.40;;;;;;5074953;28;20034;-71
2022/06/08 00:45:12;;;;;;;;;;;21.00;88.70;;;;;;5075300;28;19916;-71
2022/06/08 00:47:42;;;;;;;;;;;21.00;88.80;;;;;;5074942;28;19916;-72
2022/06/08 00:50:26;;;;;;;;;;;20.90;89.00;;;;;;5073374;28;20407;-71
2022/06/08 00:52:53;;;;;;;;;;;20.90;89.20;;;;;;5074816;28;19912;-72
2022/06/08 00:55:21;;;;;;;;;;;20.90;89.10;;;;;;5075053;28;19924;-71
2022/06/08 00:57:50;;;;;;;;;;;20.90;89.40;;;;;;5074845;28;19912;-71
2022/06/08 01:00:18;;;;;;;;;;;20.90;89.70;;;;;;5074900;28;19923;-71
2022/06/08 01:02:43;;;;;;;;;;;20.80;89.80;;;;;;5074899;28;19966;-71
2022/06/08 01:05:20;;;;;;;;;;;20.80;89.80;;;;;;5073194;28;19920;-71
2022/06/08 01:07:45;;;;;;;;;;;20.70;90.00;;;;;;5074469;28;19916;-71
2022/06/08 01:10:13;;;;;;;;;;;20.70;90.00;;;;;;5072982;28;19919;-71
2022/06/08 01:12:38;;;;;;;;;;;20.70;89.80;;;;;;5074506;28;19921;-72
2022/06/08 01:15:04;;;;;;;;;;;20.70;90.00;;;;;;5074479;28;19924;-71
2022/06/08 01:17:30;;;;;;;;;;;20.80;89.90;;;;;;5074325;28;19920;-71
2022/06/08 01:19:56;;;;;;;;;;;20.80;90.10;;;;;;5074310;28;19909;-71
2022/06/08 01:22:21;;;;;;;;;;;20.70;90.00;;;;;;5074412;28;19967;-71
2022/06/08 01:24:48;;;;;;;;;;;20.70;89.90;;;;;;5073394;28;19931;-71
2022/06/08 01:27:19;;;;;;;;;;;20.70;89.80;;;;;;5073147;28;19912;-72
2022/06/08 01:29:52;;;;;;;;;;;20.80;90.00;;;;;;5072993;28;19971;-71
2022/06/08 01:32:28;;;;;;;;;;;20.70;90.00;;;;;;5073211;28;19916;-71
2022/06/08 01:35:13;;;;;;;;;;;20.80;90.00;;;;;;5072926;28;19960;-71
2022/06/08 01:37:39;;;;;;;;;;;20.70;90.10;;;;;;5065639;28;20280;-71
2022/06/08 01:40:30;;;;;;;;;;;20.70;90.20;;;;;;5072161;28;19912;-71
2022/06/08 01:42:56;;;;;;;;;;;20.60;90.40;;;;;;5072729;28;20007;-71
2022/06/08 01:45:40;;;;;;;;;;;20.60;90.50;;;;;;5073130;28;20007;-71
2022/06/08 01:48:08;;;;;;;;;;;20.50;90.60;;;;;;5072827;28;19912;-71
2022/06/08 01:50:53;;;;;;;;;;;20.50;90.60;;;;;;5072580;28;19969;-71
2022/06/08 01:53:44;;;;;;;;;;;20.50;90.70;;;;;;5072662;28;19912;-71
2022/06/08 01:56:33;;;;;;;;;;;20.50;90.80;;;;;;5056206;28;20313;-71
2022/06/08 01:59:04;;;;;;;;;;;20.50;90.90;;;;;;5067132;28;19919;-72
2022/06/08 02:01:33;;;;;;;;;;;20.40;90.90;;;;;;5072897;28;19916;-72
2022/06/08 02:04:04;;;;;;;;;;;20.40;91.10;;;;;;5072464;28;19971;-71
2022/06/08 02:06:39;;;;;;;;;;;20.40;91.10;;;;;;5072928;28;19919;-71
2022/06/08 02:09:09;;;;;;;;;;;20.40;91.00;;;;;;5072245;28;19917;-71
2022/06/08 02:11:39;;;;;;;;;;;20.40;91.10;;;;;;5072664;28;20371;-71
2022/06/08 02:14:10;;;;;;;;;;;20.40;91.20;;;;;;5072116;28;19916;-71
2022/06/08 02:16:38;;;;;;;;;;;20.40;91.30;;;;;;5072700;28;19935;-72
2022/06/08 02:19:04;;;;;;;;;;;20.40;91.30;;;;;;5070853;28;19927;-72
2022/06/08 02:21:35;;;;;;;;;;;20.40;91.30;;;;;;5072358;28;19912;-71
2022/06/08 02:24:05;;;;;;;;;;;20.40;91.70;;;;;;4991628;28;2287437;-72
2022/06/08 02:26:38;;;;;;;;;;;20.40;91.60;;;;;;5073846;28;19923;-72
2022/06/08 02:29:10;;;;;;;;;;;20.30;91.60;;;;;;5073260;28;19916;-72
2022/06/08 02:31:39;;;;;;;;;;;20.40;91.50;;;;;;5073268;28;19916;-71
2022/06/08 02:37:11;;;;;;;;;;;20.40;91.30;;;;;;5072963;28;20341;-72
2022/06/08 02:39:48;;;;;;;;;;;20.50;91.40;;;;;;5072919;28;20439;-72
2022/06/08 02:42:19;;;;;;;;;;;20.50;91.40;;;;;;5073016;28;20633;-71
2022/06/08 02:44:47;;;;;;;;;;;20.50;91.70;;;;;;5072647;28;19909;-72
2022/06/08 02:47:29;;;;;;;;;;;20.40;91.60;;;;;;5072644;28;19920;-72
2022/06/08 02:49:54;;;;;;;;;;;20.50;91.80;;;;;;5071927;28;19919;-71
2022/06/08 02:52:22;;;;;;;;;;;20.50;91.70;;;;;;5072496;28;19920;-71
2022/06/08 02:54:49;;;;;;;;;;;20.50;91.80;;;;;;5072358;28;20271;-72
2022/06/08 02:57:14;;;;;;;;;;;20.50;92.00;;;;;;5072543;28;19920;-72
2022/06/08 02:59:43;;;;;;;;;;;20.50;91.60;;;;;;5072428;28;20241;-71
2022/06/08 03:02:08;;;;;;;;;;;20.50;91.40;;;;;;5072499;28;20348;-71
2022/06/08 03:04:39;;;;;;;;;;;20.50;91.50;;;;;;5072377;28;19916;-71
2022/06/08 03:07:11;;;;;;;;;;;20.50;91.60;;;;;;5072301;28;20371;-71
2022/06/08 03:09:37;;;;;;;;;;;20.60;91.40;;;;;;5071959;28;19951;-72
2022/06/08 03:12:10;;;;;;;;;;;20.50;91.40;;;;;;5072625;28;20375;-71
2022/06/08 03:14:36;;;;;;;;;;;20.20;91.70;;;;;;5070792;28;19909;-71
2022/06/08 03:17:04;;;;;;;;;;;20.50;92.00;;;;;;5072295;28;19920;-71
2022/06/08 03:19:30;;;;;;;;;;;20.60;91.40;;;;;;5071916;28;19994;-71
2022/06/08 03:21:56;;;;;;;;;;;20.60;91.30;;;;;;5072241;28;19970;-71
2022/06/08 03:24:23;;;;;;;;;;;20.70;91.40;;;;;;5071660;28;20372;-71
2022/06/08 03:26:51;;;;;;;;;;;20.70;91.30;;;;;;5071965;28;19916;-72
2022/06/08 03:29:17;;;;;;;;;;;20.70;91.10;;;;;;5071913;28;20039;-72
2022/06/08 03:31:42;;;;;;;;;;;20.80;91.00;;;;;;5071790;28;20495;-71
2022/06/08 03:34:08;;;;;;;;;;;20.80;90.70;;;;;;5071703;28;19916;-71
2022/06/08 03:36:33;;;;;;;;;;;20.80;90.70;;;;;;5072400;28;20271;-71
2022/06/08 03:38:59;;;;;;;;;;;20.80;90.50;;;;;;5071649;28;19923;-71
2022/06/08 03:41:24;;;;;;;;;;;20.80;90.60;;;;;;5072075;28;19908;-71
2022/06/08 03:43:50;;;;;;;;;;;20.80;90.70;;;;;;5071680;28;19927;-71
2022/06/08 03:46:16;;;;;;;;;;;20.90;90.80;;;;;;5072191;28;20022;-71
2022/06/08 03:48:44;;;;;;;;;;;21.00;90.50;;;;;;5071431;28;20291;-72
2022/06/08 03:51:10;;;;;;;;;;;21.00;90.50;;;;;;5071849;28;20006;-71
2022/06/08 03:53:37;;;;;;;;;;;21.10;90.90;;;;;;5071434;28;20372;-71
2022/06/08 03:56:04;;;;;;;;;;;21.10;91.20;;;;;;5071838;28;19916;-72
2022/06/08 03:58:31;;;;;;;;;;;21.10;91.60;;;;;;5071334;28;20229;-72
2022/06/08 04:00:57;;;;;;;;;;;21.20;91.80;;;;;;5071353;28;20004;-72
2022/06/08 04:03:22;;;;;;;;;;;21.20;91.80;;;;;;5069791;28;19939;-72
2022/06/08 04:05:48;;;;;;;;;;;21.30;91.50;;;;;;5071699;28;19935;-71
2022/06/08 04:08:13;;;;;;;;;;;21.30;90.70;;;;;;5071230;28;20273;-72
2022/06/08 04:10:39;;;;;;;;;;;21.30;90.30;;;;;;5071561;28;19924;-71
2022/06/08 04:13:04;;;;;;;;;;;21.40;90.10;;;;;;5069970;28;19930;-71
2022/06/08 04:15:45;;;;;;;;;;;21.50;90.50;;;;;;5071663;28;19916;-72
2022/06/08 04:18:13;;;;;;;;;;;21.50;90.80;;;;;;5071415;28;19931;-71
2022/06/08 04:20:39;;;;;;;;;;;21.50;90.90;;;;;;5071441;28;19909;-71
2022/06/08 04:23:05;;;;;;;;;;;21.60;91.00;;;;;;5071136;28;20392;-72
2022/06/08 04:25:30;;;;;;;;;;;21.70;90.80;;;;;;5071353;28;19925;-71
2022/06/08 04:27:56;;;;;;;;;;;21.70;90.80;;;;;;5071062;28;20323;-71
2022/06/08 04:30:22;;;;;;;;;;;21.80;90.90;;;;;;5071037;28;19916;-72
2022/06/08 04:32:48;;;;;;;;;;;21.80;90.90;;;;;;5069871;28;20376;-72
2022/06/08 04:35:14;;;;;;;;;;;21.90;91.00;;;;;;5071116;28;19995;-71
2022/06/08 04:37:39;;;;;;;;;;;21.90;91.00;;;;;;5071243;28;19959;-72
2022/06/08 04:40:06;;;;;;;;;;;22.00;90.90;;;;;;5071318;28;19948;-71
2022/06/08 04:42:32;;;;;;;;;;;22.00;91.00;;;;;;5070951;28;19958;-71
2022/06/08 04:44:58;;;;;;;;;;;22.10;91.00;;;;;;5071203;28;19916;-72
2022/06/08 04:47:24;;;;;;;;;;;22.10;91.10;;;;;;5070972;28;20424;-72
2022/06/08 04:49:49;;;;;;;;;;;22.20;91.10;;;;;;5070738;28;19935;-71
2022/06/08 04:52:14;;;;;;;;;;;22.30;90.80;;;;;;5070976;28;19920;-71
2022/06/08 04:54:40;;;;;;;;;;;22.40;90.70;;;;;;5070800;28;19919;-71
2022/06/08 04:57:05;;;;;;;;;;;22.30;91.00;;;;;;5071087;28;20250;-71
2022/06/08 04:59:31;;;;;;;;;;;22.40;90.80;;;;;;5070729;28;19927;-71
2022/06/08 05:01:56;;;;;;;;;;;22.40;90.60;;;;;;5071155;28;19941;-71
2022/06/08 05:04:22;;;;;;;;;;;22.50;89.50;;;;;;5070958;28;19954;-71
2022/06/08 05:06:47;;;;;;;;;;;22.60;87.40;;;;;;5069761;28;20288;-70
2022/06/08 05:09:13;;;;;;;;;;;22.80;85.80;;;;;;5070661;28;19909;-70
2022/06/08 05:11:38;;;;;;;;;;;22.90;85.10;;;;;;5069521;28;19924;-71
2022/06/08 05:14:04;;;;;;;;;;;23.00;85.20;;;;;;5071749;28;19939;-71
2022/06/08 05:16:29;;;;;;;;;;;23.10;85.60;;;;;;5074359;28;20364;-71
2022/06/08 05:18:55;;;;;;;;;;;23.10;85.30;;;;;;5074176;28;19923;-71
2022/06/08 05:21:20;;;;;;;;;;;23.20;84.70;;;;;;5074460;28;19955;-71
2022/06/08 05:23:46;;;;;;;;;;;23.20;85.30;;;;;;5074095;28;19912;-71
2022/06/08 05:26:12;;;;;;;;;;;23.30;85.40;;;;;;5074495;28;19916;-71
2022/06/08 05:28:38;;;;;;;;;;;23.40;84.90;;;;;;5073921;28;20011;-70
2022/06/08 05:31:04;;;;;;;;;;;23.50;85.00;;;;;;5072538;28;19922;-70
2022/06/08 05:33:30;;;;;;;;;;;23.60;84.90;;;;;;5073908;28;19955;-71
2022/06/08 05:35:55;;;;;;;;;;;23.60;84.90;;;;;;5072671;28;19924;-70
2022/06/08 05:38:21;;;;;;;;;;;23.70;84.40;;;;;;5074078;28;20015;-70
2022/06/08 05:40:47;;;;;;;;;;;23.70;84.50;;;;;;5074232;28;20013;-70
2022/06/08 05:43:14;;;;;;;;;;;23.80;85.30;;;;;;5072001;28;19924;-71
2022/06/08 05:45:40;;;;;;;;;;;23.90;85.10;;;;;;5074244;28;20229;-72
2022/06/08 05:48:06;;;;;;;;;;;24.00;83.40;;;;;;5074163;28;19920;-71
2022/06/08 05:50:33;;;;;;;;;;;24.10;82.70;;;;;;5073927;28;19955;-72
2022/06/08 05:52:59;;;;;;;;;;;24.20;83.20;;;;;;5073371;28;19950;-70
2022/06/08 05:55:24;;;;;;;;;;;24.30;80.60;;;;;;5073904;28;20306;-71
2022/06/08 05:57:51;;;;;;;;;;;24.30;80.30;;;;;;5073826;28;19921;-71
2022/06/08 06:00:18;;;;;;;;;;;24.30;79.70;;;;;;5073655;28;19924;-71
2022/06/08 06:02:44;;;;;;;;;;;24.40;81.20;;;;;;5073544;28;19919;-72
2022/06/08 06:05:11;;;;;;;;;;;24.50;78.60;;;;;;5073476;28;19991;-71
2022/06/08 06:07:36;;;;;;;;;;;24.60;78.60;;;;;;5073379;28;20368;-71
2022/06/08 06:10:03;;;;;;;;;;;24.60;79.30;;;;;;5073385;28;20019;-71
2022/06/08 06:12:32;;;;;;;;;;;24.70;78.60;;;;;;5073248;28;19958;-70
2022/06/08 06:15:01;;;;;;;;;;;24.80;78.70;;;;;;5073327;28;19913;-71
2022/06/08 06:17:27;;;;;;;;;;;24.90;79.10;;;;;;5073343;28;19913;-71
2022/06/08 06:19:52;;;;;;;;;;;24.90;78.00;;;;;;5073300;28;19952;-71
2022/06/08 06:22:18;;;;;;;;;;;25.00;78.00;;;;;;5073165;28;20339;-70
2022/06/08 06:24:43;;;;;;;;;;;25.00;79.10;;;;;;5072128;28;19966;-71
2022/06/08 06:27:09;;;;;;;;;;;25.00;79.40;;;;;;5072319;28;19916;-71
2022/06/08 06:29:34;;;;;;;;;;;25.20;78.50;;;;;;5073235;28;19912;-71
2022/06/08 06:32:05;;;;;;;;;;;25.20;78.10;;;;;;5072898;28;19917;-70
2022/06/08 06:34:31;;;;;;;;;;;25.30;79.10;;;;;;5072772;28;20177;-71
2022/06/08 06:36:58;;;;;;;;;;;25.40;78.70;;;;;;5073069;28;19917;-71
2022/06/08 06:39:26;;;;;;;;;;;25.50;79.10;;;;;;5072463;28;19924;-71
2022/06/08 06:41:52;;;;;;;;;;;25.70;79.40;;;;;;5072738;28;19962;-70
2022/06/08 06:44:17;;;;;;;;;;;25.80;79.90;;;;;;5070966;28;20347;-71
2022/06/08 06:46:43;;;;;;;;;;;26.00;77.90;;;;;;5072607;28;19913;-70
2022/06/08 06:49:08;;;;;;;;;;;26.10;78.20;;;;;;5072459;28;20297;-71
2022/06/08 06:51:34;;;;;;;;;;;26.20;78.80;;;;;;5072660;28;20018;-71
2022/06/08 06:54:00;;;;;;;;;;;26.30;78.00;;;;;;5072011;28;20003;-71
2022/06/08 06:56:26;;;;;;;;;;;26.40;77.10;;;;;;5072793;28;19919;-72
2022/06/08 06:58:53;;;;;;;;;;;26.40;77.30;;;;;;5072181;28;19917;-71
2022/06/08 07:01:18;;;;;;;;;;;26.40;76.20;;;;;;5072735;28;19936;-70
2022/06/08 07:03:44;;;;;;;;;;;26.40;76.00;;;;;;5072090;28;19983;-70
2022/06/08 07:06:10;;;;;;;;;;;26.20;75.70;;;;;;5072582;28;20291;-70
2022/06/08 07:08:36;;;;;;;;;;;26.20;76.70;;;;;;5071917;28;19918;-70
2022/06/08 07:13:46;;;;;;;;;;;26.40;75.70;;;;;;5072239;28;19920;-70
2022/06/08 07:16:12;;;;;;;;;;;26.40;76.70;;;;;;5072409;28;19912;-70
2022/06/08 07:18:37;;;;;;;;;;;26.40;76.10;;;;;;5071888;28;20003;-70
2022/06/08 07:21:03;;;;;;;;;;;26.50;76.60;;;;;;5070724;28;20003;-70
2022/06/08 07:23:29;;;;;;;;;;;26.70;76.00;;;;;;5070436;28;19912;-70
2022/06/08 07:25:54;;;;;;;;;;;26.80;75.80;;;;;;5072006;28;19920;-70
2022/06/08 07:28:20;;;;;;;;;;;27.00;75.30;;;;;;5072206;28;20003;-71
2022/06/08 07:30:45;;;;;;;;;;;26.90;75.40;;;;;;5070419;28;19916;-70
2022/06/08 07:33:11;;;;;;;;;;;26.60;75.10;;;;;;5071653;28;19979;-71
2022/06/08 07:35:36;;;;;;;;;;;26.50;74.80;;;;;;5071781;28;19913;-70
2022/06/08 07:38:02;;;;;;;;;;;26.50;75.00;;;;;;5071078;28;19960;-71
2022/06/08 07:40:27;;;;;;;;;;;26.60;75.80;;;;;;5070222;28;19912;-70
2022/06/08 07:42:53;;;;;;;;;;;26.50;75.60;;;;;;5071526;28;20376;-71
2022/06/08 07:45:18;;;;;;;;;;;26.60;75.80;;;;;;5071866;28;19912;-71
2022/06/08 07:50:40;;;;;;;;;;;27.00;75.30;;;;;;5058291;28;20379;-71
2022/06/08 07:53:06;;;;;;;;;;;27.20;74.50;;;;;;5071342;28;19912;-72
2022/06/08 07:55:31;;;;;;;;;;;27.30;72.70;;;;;;5071718;28;20248;-72
2022/06/08 07:57:57;;;;;;;;;;;27.50;73.20;;;;;;5071281;28;19913;-71
2022/06/08 08:00:23;;;;;;;;;;;27.70;73.10;;;;;;5071766;28;19913;-71
2022/06/08 08:02:48;;;;;;;;;;;27.80;72.70;;;;;;5071459;28;20253;-71
2022/06/08 08:05:15;;;;;;;;;;;28.00;71.90;;;;;;5071550;28;19916;-71
2022/06/08 08:07:40;;;;;;;;;;;28.10;72.00;;;;;;5071269;28;19956;-72
2022/06/08 08:10:08;;;;;;;;;;;28.30;72.70;;;;;;5071158;28;19959;-72
2022/06/08 08:12:35;;;;;;;;;;;28.40;72.40;;;;;;5070037;28;20065;-72
2022/06/08 08:15:01;;;;;;;;;;;28.40;73.00;;;;;;5071067;28;19917;-71
2022/06/08 08:17:26;;;;;;;;;;;28.40;72.30;;;;;;5071676;28;19919;-72
2022/06/08 08:19:52;;;;;;;;;;;28.50;70.10;;;;;;5071180;28;19962;-72
2022/06/08 08:22:19;;;;;;;;;;;28.60;71.10;;;;;;5069873;28;19913;-71
2022/06/08 08:24:45;;;;;;;;;;;28.70;70.20;;;;;;5071401;28;20421;-72
2022/06/08 08:27:11;;;;;;;;;;;28.90;68.70;;;;;;5071457;28;19912;-72
2022/06/08 08:29:36;;;;;;;;;;;28.70;69.80;;;;;;5070857;28;20392;-71
2022/06/08 08:32:02;;;;;;;;;;;28.50;68.50;;;;;;5071055;28;19921;-72
2022/06/08 08:34:27;;;;;;;;;;;28.40;67.60;;;;;;5070800;28;20404;-72
2022/06/08 08:36:53;;;;;;;;;;;28.40;66.70;;;;;;5071434;28;20364;-72
2022/06/08 08:39:19;;;;;;;;;;;28.60;67.00;;;;;;5070775;28;20379;-73
2022/06/08 08:44:32;;;;;;;;;;;28.80;66.70;;;;;;5071240;28;20312;-72
2022/06/08 08:47:17;;;;;;;;;;;29.10;65.80;;;;;;5070999;28;19963;-72
2022/06/08 08:49:52;;;;;;;;;;;29.20;63.80;;;;;;5073216;28;19912;-72
2022/06/08 08:52:39;;;;;;;;;;;29.30;65.60;;;;;;5074702;28;19992;-73
2022/06/08 08:55:23;;;;;;;;;;;29.60;64.80;;;;;;5074588;28;19913;-72
2022/06/08 08:57:55;;;;;;;;;;;29.20;64.80;;;;;;5074957;28;19999;-72
2022/06/08 09:00:29;;;;;;;;;;;28.90;66.00;;;;;;5074835;28;20014;-72
2022/06/08 09:05:40;;;;;;;;;;;29.50;64.40;;;;;;5074929;28;19927;-71
2022/06/08 09:08:09;;;;;;;;;;;29.60;64.10;;;;;;5074444;28;20261;-71
2022/06/08 09:10:34;;;;;;;;;;;29.70;64.40;;;;;;5074548;28;19917;-71
2022/06/08 09:13:02;;;;;;;;;;;29.70;64.10;;;;;;5074380;28;20074;-71
2022/06/08 09:15:45;;;;;;;;;;;29.80;63.80;;;;;;5074763;28;19913;-70
2022/06/08 09:18:28;;;;;;;;;;;29.90;63.70;;;;;;5073972;28;19916;-70
2022/06/08 09:20:54;;;;;;;;;;;29.80;63.10;;;;;;5074503;28;19916;-70
2022/06/08 09:23:22;;;;;;;;;;;30.00;64.10;;;;;;5073064;28;20013;-70
2022/06/08 09:26:03;;;;;;;;;;;30.40;64.00;;;;;;5074306;28;19921;-69
2022/06/08 09:28:29;;;;;;;;;;;30.70;62.30;;;;;;5074175;28;19967;-70
2022/06/08 09:30:55;;;;;;;;;;;30.80;62.50;;;;;;5074351;28;20268;-70
2022/06/08 09:33:26;;;;;;;;;;;30.70;62.40;;;;;;5073924;28;19913;-70
2022/06/08 09:35:55;;;;;;;;;;;30.50;62.80;;;;;;5074286;28;19930;-71
2022/06/08 09:38:22;;;;;;;;;;;30.70;61.30;;;;;;5073900;28;19913;-71
2022/06/08 09:40:57;;;;;;;;;;;30.80;61.60;;;;;;5074296;28;20292;-71
2022/06/08 09:43:34;;;;;;;;;;;30.60;62.10;;;;;;5072337;28;19912;-71
2022/06/08 09:46:04;;;;;;;;;;;30.00;62.50;;;;;;5073762;28;19919;-71
2022/06/08 09:51:29;;;;;;;;;;;29.80;64.40;;;;;;5073015;28;20050;-70
2022/06/08 09:54:12;;;;;;;;;;;30.20;62.50;;;;;;5073471;28;20391;-70
2022/06/08 09:56:56;;;;;;;;;;;30.60;62.90;;;;;;5074106;28;20330;-71
2022/06/08 09:59:27;;;;;;;;;;;30.90;61.70;;;;;;5073125;28;20291;-71
2022/06/08 10:01:56;;;;;;;;;;;30.80;62.40;;;;;;5073608;28;19959;-70
2022/06/08 10:04:26;;;;;;;;;;;30.70;62.50;;;;;;5073178;28;19913;-71
2022/06/08 10:07:18;;;;;;;;;;;30.80;62.50;;;;;;5072434;28;19912;-71
2022/06/08 10:10:02;;;;;;;;;;;30.80;61.80;;;;;;5070821;28;19919;-70
2022/06/08 10:12:30;;;;;;;;;;;30.10;62.10;;;;;;5073272;28;19916;-70
2022/06/08 10:15:01;;;;;;;;;;;30.00;63.30;;;;;;5073205;28;19917;-70
2022/06/08 10:17:27;;;;;;;;;;;30.30;62.40;;;;;;5073245;28;20004;-71
2022/06/08 10:19:58;;;;;;;;;;;30.70;61.60;;;;;;5072976;28;19999;-69
2022/06/08 10:22:27;;;;;;;;;;;31.00;61.00;;;;;;5071852;28;19912;-70
2022/06/08 10:24:58;;;;;;;;;;;31.10;61.80;;;;;;5071317;28;19932;-71
2022/06/08 10:27:30;;;;;;;;;;;31.30;61.80;;;;;;5072981;28;19919;-71
2022/06/08 10:30:07;;;;;;;;;;;31.40;60.90;;;;;;5072600;28;20029;-71
2022/06/08 10:32:53;;;;;;;;;;;31.70;60.20;;;;;;5073025;28;19919;-72
2022/06/08 10:35:22;;;;;;;;;;;31.30;60.00;;;;;;5105050;28;19919;-70
2022/06/08 10:37:48;;;;;;;;;;;30.50;61.30;;;;;;5072777;28;20038;-71
2022/06/08 10:40:19;;;;;;;;;;;30.70;62.00;;;;;;5072632;28;19916;-72
2022/06/08 10:42:47;;;;;;;;;;;31.30;60.60;;;;;;5071449;28;19961;-71
2022/06/08 10:45:22;;;;;;;;;;;31.50;59.70;;;;;;5072630;28;19923;-71
2022/06/08 10:48:01;;;;;;;;;;;31.40;58.60;;;;;;5072474;28;20292;-71
2022/06/08 10:50:30;;;;;;;;;;;31.00;59.60;;;;;;5072764;28;20245;-71
2022/06/08 10:54:53;;;;;;;;;;;31.10;59.70;;;;;;5072643;28;19951;-71
2022/06/08 10:55:42;;;;;;;;;;;31.40;59.20;;;;;;5072612;28;20256;-71
2022/06/08 10:58:09;;;;;;;;;;;31.80;59.40;;;;;;5072444;28;19920;-72
2022/06/08 11:00:58;;;;;;;;;;;32.20;58.90;;;;;;5072196;28;19917;-71
2022/06/08 11:03:36;;;;;;;;;;;32.50;58.50;;;;;;5072108;28;19946;-71
2022/06/08 11:06:07;;;;;;;;;;;32.40;58.30;;;;;;5072551;28;19913;-72
2022/06/08 11:08:51;;;;;;;;;;;32.30;58.60;;;;;;5072008;28;20372;-71
2022/06/08 11:11:35;;;;;;;;;;;32.20;57.30;;;;;;5070221;28;19916;-72
2022/06/08 11:14:01;;;;;;;;;;;32.20;57.50;;;;;;5071737;28;19912;-71
2022/06/08 11:16:28;;;;;;;;;;;31.80;57.50;;;;;;5072199;28;19934;-71
2022/06/08 11:18:56;;;;;;;;;;;31.70;58.10;;;;;;5071614;28;19912;-71
2022/06/08 11:21:33;;;;;;;;;;;31.80;58.40;;;;;;5071459;28;19964;-71
2022/06/08 11:24:01;;;;;;;;;;;32.10;58.10;;;;;;5071226;28;19928;-71
2022/06/08 11:26:35;;;;;;;;;;;32.30;58.00;;;;;;5072166;28;20288;-71
2022/06/08 11:29:16;;;;;;;;;;;32.70;58.30;;;;;;5071526;28;20387;-71
2022/06/08 11:31:42;;;;;;;;;;;33.20;57.50;;;;;;5070076;28;19960;-71
2022/06/08 11:34:08;;;;;;;;;;;33.20;56.30;;;;;;5071851;28;20368;-71
2022/06/08 11:36:48;;;;;;;;;;;32.50;56.60;;;;;;5072027;28;19991;-71
2022/06/08 11:39:22;;;;;;;;;;;32.30;56.40;;;;;;5071284;28;19912;-71
2022/06/08 11:42:06;;;;;;;;;;;32.50;56.30;;;;;;5071498;28;20494;-71
2022/06/08 11:44:34;;;;;;;;;;;32.30;55.70;;;;;;5071565;28;20031;-71
2022/06/08 11:47:26;;;;;;;;;;;32.10;56.20;;;;;;5071591;28;19924;-71
2022/06/08 11:49:56;;;;;;;;;;;32.10;56.20;;;;;;5055056;28;19912;-72
2022/06/08 11:52:41;;;;;;;;;;;32.50;56.60;;;;;;5071435;28;19916;-72
2022/06/08 11:55:08;;;;;;;;;;;32.20;55.80;;;;;;5071521;28;20350;-71
2022/06/08 11:57:34;;;;;;;;;;;31.20;56.50;;;;;;5071363;28;19999;-71
2022/06/08 12:00:01;;;;;;;;;;;31.20;57.60;;;;;;5071121;28;20275;-72
2022/06/08 12:02:35;;;;;;;;;;;31.40;57.30;;;;;;5071438;28;19942;-72
2022/06/08 12:05:01;;;;;;;;;;;31.60;57.30;;;;;;5071217;28;20268;-72
2022/06/08 12:07:46;;;;;;;;;;;31.90;57.90;;;;;;5069936;28;19923;-71
2022/06/08 12:10:16;;;;;;;;;;;32.10;57.50;;;;;;5070995;28;20423;-72
2022/06/08 12:12:44;;;;;;;;;;;32.20;56.00;;;;;;5071206;28;19927;-71
2022/06/08 12:15:28;;;;;;;;;;;32.20;56.00;;;;;;5071270;28;19909;-71
2022/06/08 12:17:54;;;;;;;;;;;32.20;56.40;;;;;;5071050;28;19970;-71
2022/06/08 12:20:31;;;;;;;;;;;32.00;57.00;;;;;;5071243;28;20290;-71
2022/06/08 12:22:56;;;;;;;;;;;31.70;56.70;;;;;;5072226;28;20325;-71
2022/06/08 12:25:23;;;;;;;;;;;31.10;57.00;;;;;;5075192;28;19924;-72
2022/06/08 12:27:54;;;;;;;;;;;30.30;58.00;;;;;;5075224;28;20411;-71
2022/06/08 12:30:21;;;;;;;;;;;30.20;58.90;;;;;;5073601;28;20399;-71
2022/06/08 12:32:57;;;;;;;;;;;30.30;59.00;;;;;;5075231;28;20337;-71
2022/06/08 12:35:23;;;;;;;;;;;30.30;59.00;;;;;;5073696;28;19919;-71
2022/06/08 12:37:49;;;;;;;;;;;29.80;58.60;;;;;;5075145;28;19913;-71
2022/06/08 12:40:15;;;;;;;;;;;29.60;58.80;;;;;;5074652;28;20346;-71
2022/06/08 12:43:11;;;;;;;;;;;29.80;58.40;;;;;;5074975;28;19913;-72
2022/06/08 12:45:38;;;;;;;;;;;29.90;58.00;;;;;;5073883;28;19913;-72
2022/06/08 12:48:16;;;;;;;;;;;29.80;58.80;;;;;;5073396;28;19916;-71
2022/06/08 12:50:42;;;;;;;;;;;29.60;59.20;;;;;;5074997;28;19927;-71
2022/06/08 12:53:07;;;;;;;;;;;29.50;59.10;;;;;;5074609;28;19912;-71
2022/06/08 12:55:36;;;;;;;;;;;29.60;57.70;;;;;;5074858;28;19920;-71
2022/06/08 12:58:02;;;;;;;;;;;29.60;57.70;;;;;;5074708;28;20320;-71
2022/06/08 13:00:30;;;;;;;;;;;29.70;58.30;;;;;;5074842;28;20065;-71
2022/06/08 13:02:59;;;;;;;;;;;29.80;57.50;;;;;;5074844;28;20003;-71
2022/06/08 13:05:24;;;;;;;;;;;29.70;56.70;;;;;;5074646;28;19939;-71
2022/06/08 13:07:50;;;;;;;;;;;29.70;58.00;;;;;;5074680;28;20543;-71
2022/06/08 13:10:16;;;;;;;;;;;29.70;57.50;;;;;;5074120;28;19916;-71
2022/06/08 13:12:47;;;;;;;;;;;29.80;57.40;;;;;;5074634;28;19973;-71
2022/06/08 13:15:17;;;;;;;;;;;29.70;56.70;;;;;;5074269;28;19916;-71
2022/06/08 13:17:42;;;;;;;;;;;29.50;57.00;;;;;;5074285;28;19955;-71
2022/06/08 13:20:18;;;;;;;;;;;29.40;57.40;;;;;;5074065;28;20027;-71
2022/06/08 13:22:44;;;;;;;;;;;29.20;58.00;;;;;;5074318;28;19912;-71
2022/06/08 13:25:12;;;;;;;;;;;29.10;58.40;;;;;;5073830;28;19920;-71
2022/06/08 13:27:38;;;;;;;;;;;29.00;59.00;;;;;;5074092;28;19913;-71
2022/06/08 13:30:04;;;;;;;;;;;29.00;59.20;;;;;;5073800;28;19936;-71
2022/06/08 13:32:29;;;;;;;;;;;29.00;58.90;;;;;;5074046;28;19948;-71
2022/06/08 13:34:54;;;;;;;;;;;29.00;59.10;;;;;;5073402;28;19920;-71
2022/06/08 13:37:22;;;;;;;;;;;29.00;59.00;;;;;;5074260;28;19917;-71
2022/06/08 13:39:49;;;;;;;;;;;29.00;59.80;;;;;;5073909;28;20386;-70
2022/06/08 13:42:19;;;;;;;;;;;29.00;59.50;;;;;;5072581;28;19913;-71
2022/06/08 13:44:48;;;;;;;;;;;29.00;59.20;;;;;;5073638;28;20000;-71
2022/06/08 13:47:19;;;;;;;;;;;29.00;58.80;;;;;;5072218;28;19912;-71
2022/06/08 13:49:48;;;;;;;;;;;28.80;59.20;;;;;;5072063;28;20365;-71
2022/06/08 13:52:15;;;;;;;;;;;28.50;59.10;;;;;;5073944;28;19916;-71
2022/06/08 13:54:41;;;;;;;;;;;28.40;59.70;;;;;;5073366;28;19916;-71
2022/06/08 13:57:08;;;;;;;;;;;28.30;60.00;;;;;;5073700;28;20004;-72
2022/06/08 13:59:35;;;;;;;;;;;28.30;60.40;;;;;;5073396;28;20955;-71
2022/06/08 14:02:00;;;;;;;;;;;28.30;60.20;;;;;;5073999;28;19948;-71
2022/06/08 14:04:28;;;;;;;;;;;28.40;60.30;;;;;;5072438;28;19954;-71
2022/06/08 14:15:08;;;;;;;;;;;28.30;61.50;;;;;;5078978;28;20020;-68
2022/06/08 14:17:34;;;;;;;;;;;28.30;60.90;;;;;;5083809;28;19924;-68
2022/06/08 14:20:00;;;;;;;;;;;28.30;60.40;;;;;;5092850;28;19912;-68
2022/06/08 14:22:27;;;;;;;;;;;28.20;60.00;;;;;;5093799;28;20385;-67
2022/06/08 14:24:55;;;;;;;;;;;28.20;60.40;;;;;;5082311;28;19924;-68
2022/06/08 14:27:21;;;;;;;;;;;28.20;60.40;;;;;;5084318;28;20355;-67
2022/06/08 14:29:47;;;;;;;;;;;28.00;60.60;;;;;;5074997;28;19912;-67
2022/06/08 14:32:17;;;;;;;;;;;28.00;60.80;;;;;;5076827;28;19931;-67
2022/06/08 14:34:42;;;;;;;;;;;28.10;60.70;;;;;;5079689;28;19978;-67
2022/06/08 14:37:08;;;;;;;;;;;28.10;60.40;;;;;;5072989;28;19921;-67
2022/06/08 14:39:35;;;;;;;;;;;28.10;60.40;;;;;;5077073;28;20009;-67
2022/06/08 14:42:02;;;;;;;;;;;28.10;60.10;;;;;;5076901;28;19924;-67
2022/06/08 14:44:29;;;;;;;;;;;28.00;60.90;;;;;;5075667;28;19935;-67
2022/06/08 14:46:55;;;;;;;;;;;27.90;61.20;;;;;;5078814;28;19924;-67
2022/06/08 14:49:22;;;;;;;;;;;27.90;60.70;;;;;;5074320;28;19913;-67
2022/06/08 14:51:48;;;;;;;;;;;27.90;60.80;;;;;;5076150;28;20284;-68